ADDS METAR Data INFO
IDs: Format: Raw Decoded Include TAF

Data at: 0900 UTC 20 Oct 2017

PAHY 200856Z AUTO 12007KT 10SM -RA SCT023 BKN028 OVC055 07/04 A2930 RMK AO2 SLP920 6//// T00670044 51021 PNO $
PAHY 200825Z AUTO 11005KT 10SM -RA BKN029 BKN036 06/04 A2929 RMK AO2 PNO $
PAHY 200756Z AUTO 09004KT 10SM -RA FEW030 BKN041 BKN060 06/04 A2928 RMK AO2 SLP913 T00610044 401000061 PNO $
PAHY 200656Z AUTO 03003KT 8SM -RA BKN025 BKN030 OVC065 06/04 A2926 RMK AO2 RAB49 SLP907 T00610044 PNO $
PAHY 200648Z AUTO 00000KT 8SM BKN027 OVC065 06/04 A2926 RMK AO2 PNO $
PAHY 200556Z AUTO 26006KT 10SM BKN034 BKN043 08/04 A2924 RMK AO2 RAB33E50 SLP899 6//// T00780039 10083 20072 53027 PNO $
PAHY 200456Z AUTO 16005KT 10SM SCT033 BKN045 OVC060 08/06 A2921 RMK AO2 RAE05B21E48 SLP890 T00780056 PNO $
PAHY 200403Z AUTO 11004KT 10SM -RA FEW022 BKN039 OVC047 07/06 A2919 RMK AO2 PNO $
PAHY 200356Z AUTO 09003KT 10SM -RA FEW023 BKN028 OVC038 07/06 A2919 RMK AO2 RAB47 SLP881 T00720061 PNO $
PAHY 200333Z AUTO 10003KT 10SM BKN027 OVC045 07/06 A2918 RMK AO2 PNO $
PAHY 200256Z AUTO 00000KT 9SM FEW020 OVC037 07/06 A2916 RMK AO2 RAB30E47 SLP872 6//// T00720061 51022 PNO $
PAHY 200254Z AUTO 00000KT 10SM FEW020 OVC037 07/06 A2916 RMK AO2 RAB30E47 PNO $
PAHY 200223Z AUTO 00000KT 10SM OVC026 07/06 A2915 RMK AO2 PNO $
PAHY 200156Z AUTO 30004KT 10SM SCT032 SCT041 OVC050 08/06 A2914 RMK AO2 RAE40 SLP864 T00780056 PNO $
PAHY 200128Z AUTO 30008KT 10SM -RA FEW012 BKN038 OVC047 08/05 A2912 RMK AO2 PNO $
PAHY 200056Z AUTO 24004KT 10SM -RA BKN017 OVC037 08/06 A2910 RMK AO2 SLP851 T00830061 PNO $
PAHY 200034Z AUTO 25005KT 10SM -RA FEW012 SCT027 OVC039 08/06 A2909 RMK AO2 PNO $
PAHY 192356Z AUTO 27005KT 10SM -RA OVC018 08/07 A2906 RMK AO2 RAE07B24 SLP838 6//// T00830067 10089 20072 53018 PNO $
PAHY 192256Z AUTO 32005KT 10SM -RA BKN028 BKN036 OVC050 08/06 A2903 RMK AO2 RAB38 SLP828 T00780061 PNO $
PAHY 192253Z AUTO 32005KT 10SM -RA FEW012 BKN028 OVC036 08/06 A2903 RMK AO2 RAB38 PNO $
PAHY 192219Z AUTO 32005KT 10SM SCT025 BKN035 OVC043 08/06 A2902 RMK AO2 PNO $
PAHY 192156Z AUTO 01004KT 10SM FEW017 OVC027 08/06 A2901 RMK AO2 SLP820 T00830061 PNO $
PAHY 192056Z AUTO 00000KT 10SM BKN019 OVC025 08/06 A2899 RMK AO2 RAE48 SLP813 6//// T00830056 53019 PNO $
PAHY 192044Z AUTO 15004KT 10SM -RA BKN021 BKN027 OVC035 08/06 A2899 RMK AO2 PNO $
PAHY 191956Z AUTO 14007KT 10SM -RA OVC032 08/06 A2897 RMK AO2 RAB27 SLP806 T00830056 PNO $
PAHY 191923Z AUTO 12003KT 10SM BKN029 BKN036 BKN046 08/05 A2896 RMK AO2 PNO $
PAHY 191915Z AUTO 11003KT 10SM FEW022 SCT029 BKN034 08/05 A2895 RMK AO2 PNO $
PAHY 191903Z AUTO 14005KT 10SM SCT020 BKN027 OVC034 08/05 A2895 RMK AO2 PNO $
PAHY 191856Z AUTO 13005KT 10SM SCT020 SCT027 OVC036 08/05 A2895 RMK AO2 SLP799 T00830050 PNO $
PAHY 191848Z AUTO 12004KT 10SM BKN020 BKN029 OVC046 08/05 A2894 RMK AO2 PNO $
PAHY 191756Z AUTO 11003KT 10SM SCT026 BKN031 OVC047 07/05 A2893 RMK AO2 SLP794 6//// T00720050 10078 20061 51016 PNO $
PAHY 191753Z AUTO 10003KT 10SM BKN026 OVC047 07/05 A2893 RMK AO2 PNO $
PAHY 191731Z AUTO 00000KT 10SM SCT028 BKN036 OVC045 07/04 A2892 RMK AO2 PNO $
PAHY 191719Z AUTO 00000KT 10SM FEW020 BKN028 OVC034 07/04 A2892 RMK AO2 PNO $
PAHY 191656Z AUTO 00000KT 10SM SCT034 OVC050 06/05 A2891 RMK AO2 SLP786 T00610050 PNO $
PAHY 191556Z AUTO 00000KT 10SM OVC036 07/04 A2888 RMK AO2 SLP778 T00670044 PNO $
PAHY 191456Z AUTO 00000KT 10SM OVC035 07/04 A2887 RMK AO2 SLP774 6//// T00670044 51017 PNO $
PAHY 191356Z AUTO 00000KT 10SM BKN039 OVC046 07/05 A2886 RMK AO2 RAE18 SLP769 T00670050 PNO $
PAHY 191218Z AUTO 13007G16KT 9SM RA SCT014 SCT019 OVC041 08/06 A2883 RMK AO2 PNO $
PAHY 191209Z AUTO 12007KT 10SM RA FEW014 BKN028 OVC043 08/06 A2883 RMK AO2 P0000 $
PAHY 191156Z AUTO 13008KT 10SM RA FEW017 SCT029 OVC038 08/05 A2882 RMK AO2 SLP757 P0000 6//// 7//// T00780050 10100 20067 53011 $
PAHY 191114Z AUTO 08007KT 020V120 10SM -RA FEW023 BKN030 OVC037 08/06 A2880 RMK AO2 P0000 $
PAHY 191056Z AUTO VRB05KT 10SM -RA SCT023 BKN029 OVC038 08/06 A2880 RMK AO2 RAB11E23B49 SLP749 P0000 T00830061 $
PAHY 191025Z AUTO VRB06KT 10SM BKN023 OVC032 09/06 A2879 RMK AO2 RAB11E23 P0000 $
PAHY 190956Z AUTO 10007KT 060V150 10SM SCT028 SCT035 BKN045 09/06 A2879 RMK AO2 RAB13E52 SLP746 P0000 T00940056 $
PAHY 190952Z AUTO 11008G17KT 10SM SCT028 BKN042 09/06 A2879 RMK AO2 RAB13E52 P0000 $
PAHY 190856Z AUTO 12012G20KT 10SM FEW020 BKN026 BKN050 09/06 A2879 RMK AO2 SLP747 6//// T00940061 53002 $
PAHY 190844Z AUTO 13011G19KT 10SM SCT022 BKN028 BKN050 09/06 A2879 RMK AO2 $
PAHY 190756Z AUTO 14012G20KT 110V170 10SM FEW021 BKN026 OVC037 10/06 A2879 RMK AO2 RAB13E34 SLP748 T01000056 401000050 $
PAHY 190656Z AUTO 13010G26KT 10SM OVC020 09/07 A2878 RMK AO2 PK WND 14026/0651 RAE50 SLP743 T00940067 PNO $
PAHY 190556Z AUTO VRB04KT 6SM RA BR SCT022 OVC028 07/06 A2879 RMK AO2 SLP745 6//// T00670056 10100 20061 55004 PNO $
PAHY 190456Z AUTO 9SM -RA FEW030 OVC037 06/04 A2878 RMK AO2 SLP744 T00610044 PNO $
PAHY 190356Z AUTO 9SM RA FEW029 OVC037 07/05 A2880 RMK AO2 SLP750 T00720050 PNO $
PAHY 190256Z AUTO VRB03KT 10SM -RA SCT035 OVC043 07/06 A2881 RMK AO2 SLP753 6//// T00720056 58021 PNO $
PAHY 190156Z AUTO 09006KT 10SM RA FEW023 SCT028 OVC041 08/06 A2883 RMK AO2 SLP761 T00830056 PNO $
PAHY 190056Z AUTO 10007KT 7SM -RA SCT023 BKN029 OVC039 09/06 A2885 RMK AO2 RAB19 SLP768 T00890056 PNO $
PAHY 182356Z AUTO 14008KT 10SM FEW023 OVC045 09/05 A2887 RMK AO2 RAE12 SLP773 6//// T00940050 10094 20067 56021 PNO $
PAHY 182322Z AUTO 13007KT 10SM FEW021 SCT026 BKN035 09/06 A2889 RMK AO2 RAE12 PNO $
PAHY 182256Z AUTO 12007KT 090V190 10SM -RA BKN023 OVC031 09/06 A2889 RMK AO2 RAB28 SLP781 T00890056 PNO $
PAHY 182246Z AUTO VRB06G17KT 9SM -RA BKN025 OVC029 09/06 A2890 RMK AO2 RAB28 PNO $
PAHY 182214Z AUTO VRB03KT 10SM SCT024 BKN034 OVC042 09/06 A2890 RMK AO2 PNO $
PAHY 182156Z AUTO 14008G17KT 10SM BKN027 BKN032 OVC042 09/05 A2891 RMK AO2 SLP786 T00940050 PNO $
PAHY 182108Z AUTO 15010KT 10SM BKN027 09/06 A2893 RMK AO2 PNO $